Impacts TAF Board
For situational awareness. Not to be used for flight planning purposes.
IDs:

KIAH - Houston/Bush Intl, TX, US

Issued at 2048 UTC 20 Oct 2018
Updated at 2114 UTC 20 Oct 2018
Potential Impact None Slight Moderate High
Time<<21/22Z 21/23Z 22/00Z 22/01Z 22/02Z 22/03Z 22/04Z 22/05Z 22/06Z 22/07Z 22/08Z 22/09Z 22/10Z
Type PRVL PRVL
VIS >6 >6
CIG 250 250
Cover BKN BKN
FltCat VFR VFR
WX -- --
WDir 40 40
WSpd 15 8
WGst -- --
Raw TAF
KIAH 202048Z 2021/2124 36013KT P6SM OVC009
  FM210300 02011KT P6SM BKN015 BKN250
  FM210600 02008KT P6SM SCT030 SCT250
  FM211300 04013KT P6SM BKN250
  FM211500 04015KT P6SM BKN250
  FM212300 04008KT P6SM BKN250


METAR Board
Radar Display
Forecast Discussion
For situational awareness. Not to be used for flight planning purposes.